createdAt,value
2022-12-22T00:00:21.203Z,8.95
2022-12-22T00:03:06.713Z,8.95
2022-12-22T00:05:51.985Z,8.02
2022-12-22T00:08:37.399Z,6.55
2022-12-22T00:11:25.536Z,6.70
2022-12-22T00:14:10.691Z,8.10
2022-12-22T00:16:56.458Z,6.60
2022-12-22T00:19:42.208Z,7.47
2022-12-22T00:22:42.204Z,5.80
2022-12-22T00:25:31.503Z,6.18
2022-12-22T00:28:16.672Z,7.28
2022-12-22T00:31:01.870Z,6.80
2022-12-22T00:33:47.002Z,6.60
2022-12-22T00:36:32.007Z,6.95
2022-12-22T00:39:17.238Z,8.95
2022-12-22T00:42:02.405Z,7.90
2022-12-22T00:44:47.607Z,7.25
2022-12-22T00:47:53.450Z,6.07
2022-12-22T00:50:47.781Z,7.38
2022-12-22T00:53:33.074Z,7.40
2022-12-22T00:56:18.348Z,7.18
2022-12-22T00:59:03.341Z,7.20
2022-12-22T01:01:48.711Z,8.75
2022-12-22T01:04:33.966Z,8.40
2022-12-22T01:07:19.479Z,6.55
2022-12-22T01:10:10.555Z,6.20
2022-12-22T01:12:59.357Z,5.85
2022-12-22T01:15:45.603Z,6.32
2022-12-22T01:18:30.784Z,3.92
2022-12-22T01:21:16.110Z,4.05
2022-12-22T01:24:01.707Z,3.97
2022-12-22T01:26:47.514Z,4.05
2022-12-22T01:29:32.661Z,5.30
2022-12-22T01:32:17.818Z,3.80
2022-12-22T01:35:02.904Z,3.90
2022-12-22T01:37:48.096Z,3.88
2022-12-22T01:40:40.120Z,3.80
2022-12-22T01:43:43.292Z,4.07
2022-12-22T01:46:48.734Z,3.97
2022-12-22T01:49:34.921Z,4.05
2022-12-22T01:52:20.144Z,4.22
2022-12-22T01:55:05.754Z,3.53
2022-12-22T01:57:50.782Z,3.70
2022-12-22T02:00:36.139Z,3.38
2022-12-22T02:03:21.692Z,3.40
2022-12-22T02:06:15.888Z,4.00
2022-12-22T02:09:01.560Z,3.88
2022-12-22T02:12:05.219Z,3.60
2022-12-22T02:15:05.676Z,4.45
2022-12-22T02:17:56.723Z,4.10
2022-12-22T02:20:48.892Z,4.85
2022-12-22T02:23:58.435Z,4.30
2022-12-22T02:26:54.836Z,4.93
2022-12-22T02:29:47.189Z,4.55
2022-12-22T02:32:32.338Z,4.50
2022-12-22T02:35:17.468Z,4.45
2022-12-22T02:38:24.176Z,4.10
2022-12-22T02:41:16.782Z,4.03
2022-12-22T02:44:11.403Z,3.90
2022-12-22T02:47:02.056Z,4.35
2022-12-22T02:49:57.987Z,4.40
2022-12-22T02:52:50.192Z,3.45
2022-12-22T02:55:35.572Z,3.35
2022-12-22T02:58:20.942Z,2.72
2022-12-22T03:01:06.171Z,3.88
2022-12-22T03:03:51.487Z,3.30
2022-12-22T03:06:36.865Z,2.85
2022-12-22T03:09:22.309Z,2.83
2022-12-22T03:12:07.552Z,2.90
2022-12-22T03:14:52.670Z,2.50
2022-12-22T03:17:38.344Z,2.70
2022-12-22T03:20:24.385Z,3.25
2022-12-22T03:23:09.509Z,3.15
2022-12-22T03:25:54.486Z,3.35
2022-12-22T03:28:22.468Z,3.20
2022-12-22T03:31:03.653Z,3.00
2022-12-22T03:33:30.534Z,3.33
2022-12-22T03:35:57.429Z,2.90
2022-12-22T03:38:24.186Z,3.45
2022-12-22T03:40:50.913Z,3.30
2022-12-22T03:43:36.522Z,3.20
2022-12-22T03:46:29.709Z,2.97
2022-12-22T03:49:12.644Z,3.33
2022-12-22T03:51:44.960Z,3.35
2022-12-22T03:54:16.551Z,3.47
2022-12-22T03:56:43.302Z,2.80
2022-12-22T03:59:10.178Z,3.20
2022-12-22T04:01:44.659Z,2.40
2022-12-22T04:04:11.721Z,3.45
2022-12-22T04:06:38.551Z,2.70
2022-12-22T04:09:05.427Z,3.00
2022-12-22T04:11:50.617Z,2.60
2022-12-22T04:14:17.400Z,2.80
2022-12-22T04:16:44.288Z,2.63
2022-12-22T04:19:11.109Z,2.65
2022-12-22T04:21:37.883Z,2.40
2022-12-22T04:24:05.166Z,2.40
2022-12-22T04:26:31.915Z,2.72
2022-12-22T04:28:58.735Z,2.47
2022-12-22T04:31:25.585Z,2.42
2022-12-22T04:33:52.403Z,2.40
2022-12-22T04:36:19.364Z,2.33
2022-12-22T04:38:46.317Z,2.25
2022-12-22T04:41:13.110Z,2.90
2022-12-22T04:43:39.829Z,2.22
2022-12-22T04:46:06.817Z,2.55
2022-12-22T04:48:33.920Z,1.80
2022-12-22T04:51:00.796Z,2.80
2022-12-22T04:53:28.144Z,2.55
2022-12-22T04:56:02.962Z,2.25
2022-12-22T04:58:29.963Z,2.30
2022-12-22T05:00:56.848Z,2.05
2022-12-22T05:03:24.057Z,2.35
2022-12-22T05:05:51.033Z,2.38
2022-12-22T05:08:17.824Z,2.10
2022-12-22T05:10:44.671Z,2.15
2022-12-22T05:13:11.463Z,1.90
2022-12-22T05:15:38.282Z,2.30
2022-12-22T05:18:05.282Z,2.67
2022-12-22T05:20:32.085Z,2.40
2022-12-22T05:22:58.949Z,2.65
2022-12-22T05:25:28.544Z,2.40
2022-12-22T05:27:58.258Z,2.10
2022-12-22T05:30:25.048Z,1.83
2022-12-22T05:32:51.804Z,1.80
2022-12-22T05:35:18.610Z,1.90
2022-12-22T05:37:45.322Z,2.20
2022-12-22T05:40:12.720Z,2.05
2022-12-22T05:42:39.655Z,2.20
2022-12-22T05:45:17.463Z,2.40
2022-12-22T05:47:45.219Z,2.80
2022-12-22T05:50:12.494Z,2.47
2022-12-22T05:52:39.329Z,2.58
2022-12-22T05:55:06.785Z,2.13
2022-12-22T05:57:33.659Z,2.20
2022-12-22T06:00:00.452Z,1.95
2022-12-22T06:02:27.318Z,2.88
2022-12-22T06:04:54.266Z,2.30
2022-12-22T06:07:20.968Z,2.10
2022-12-22T06:09:47.657Z,2.10
2022-12-22T06:12:14.493Z,2.60
2022-12-22T06:14:41.248Z,2.40
2022-12-22T06:17:08.063Z,2.20
2022-12-22T06:19:34.930Z,2.40
2022-12-22T06:22:01.828Z,2.95
2022-12-22T06:24:28.796Z,2.67
2022-12-22T06:26:55.621Z,2.38
2022-12-22T06:29:22.492Z,2.50
2022-12-22T06:31:49.428Z,2.40
2022-12-22T06:34:18.090Z,2.67
2022-12-22T06:36:45.839Z,2.03
2022-12-22T06:39:13.777Z,2.85
2022-12-22T06:41:59.430Z,2.40
2022-12-22T06:44:26.272Z,2.20
2022-12-22T06:46:53.298Z,2.05
2022-12-22T06:49:20.365Z,2.00
2022-12-22T06:51:47.233Z,2.78
2022-12-22T06:54:13.991Z,2.20
2022-12-22T06:56:40.749Z,1.98
2022-12-22T06:59:07.564Z,2.15
2022-12-22T07:01:34.413Z,2.03
2022-12-22T07:04:01.385Z,1.75
2022-12-22T07:06:28.195Z,1.90
2022-12-22T07:08:57.990Z,1.95
2022-12-22T07:11:24.728Z,1.90
2022-12-22T07:13:51.732Z,2.05
2022-12-22T07:16:18.548Z,1.98
2022-12-22T07:18:45.384Z,2.40
2022-12-22T07:21:13.140Z,2.50
2022-12-22T07:23:40.175Z,2.70
2022-12-22T07:26:07.728Z,3.28
2022-12-22T07:28:35.544Z,2.70
2022-12-22T07:31:02.359Z,2.55
2022-12-22T07:33:29.287Z,2.42
2022-12-22T07:36:10.190Z,3.10
2022-12-22T07:38:38.522Z,2.53
2022-12-22T07:41:26.130Z,2.50
2022-12-22T07:43:53.701Z,2.95
2022-12-22T07:46:20.610Z,3.40
2022-12-22T07:49:05.949Z,3.97
2022-12-22T07:51:33.868Z,4.90
2022-12-22T07:54:00.700Z,3.63
2022-12-22T07:56:27.529Z,4.40
2022-12-22T07:58:54.345Z,2.95
2022-12-22T08:01:21.161Z,4.20
2022-12-22T08:03:48.027Z,4.18
2022-12-22T08:06:14.785Z,4.15
2022-12-22T08:08:41.595Z,4.65
2022-12-22T08:11:08.335Z,4.75
2022-12-22T08:13:35.034Z,4.43
2022-12-22T08:16:09.903Z,4.05
2022-12-22T08:18:36.895Z,4.80
2022-12-22T08:21:04.356Z,5.32
2022-12-22T08:23:31.636Z,3.90
2022-12-22T08:26:05.756Z,3.00
2022-12-22T08:28:33.923Z,2.90
2022-12-22T08:31:01.188Z,3.47
2022-12-22T08:33:27.973Z,2.90
2022-12-22T08:35:55.473Z,3.00
2022-12-22T08:38:22.214Z,3.05
2022-12-22T08:40:49.041Z,3.13
2022-12-22T08:43:16.048Z,3.80
2022-12-22T08:45:42.942Z,5.45
2022-12-22T08:48:10.678Z,4.68
2022-12-22T08:50:37.442Z,5.18
2022-12-22T08:53:04.939Z,4.25
2022-12-22T08:55:31.897Z,7.00
2022-12-22T08:57:58.775Z,7.20
2022-12-22T09:00:25.829Z,9.75
2022-12-22T09:02:52.686Z,6.85
2022-12-22T09:05:19.684Z,8.88
2022-12-22T09:07:47.340Z,7.28
2022-12-22T09:10:14.076Z,7.13
2022-12-22T09:12:40.893Z,8.20
2022-12-22T09:15:08.901Z,8.52
2022-12-22T09:17:36.295Z,5.38
2022-12-22T09:20:04.741Z,5.07
2022-12-22T09:22:31.575Z,4.03
2022-12-22T09:24:58.292Z,3.90
2022-12-22T09:27:25.055Z,3.47
2022-12-22T09:29:51.808Z,3.13
2022-12-22T09:32:18.701Z,3.60
2022-12-22T09:34:45.504Z,3.60
2022-12-22T09:37:15.072Z,3.17
2022-12-22T09:39:41.764Z,2.80
2022-12-22T09:42:15.967Z,2.95
2022-12-22T09:44:47.153Z,2.92
2022-12-22T09:47:21.671Z,2.10
2022-12-22T09:49:48.643Z,2.30
2022-12-22T09:52:34.877Z,2.40
2022-12-22T09:55:02.516Z,2.13
2022-12-22T09:57:32.877Z,2.58
2022-12-22T10:00:16.003Z,2.13
2022-12-22T10:02:50.820Z,2.40
2022-12-22T10:05:48.430Z,1.73
2022-12-22T10:08:27.018Z,1.90
2022-12-22T10:10:54.353Z,1.90
2022-12-22T10:13:21.243Z,1.70
2022-12-22T10:15:48.145Z,1.60
2022-12-22T10:18:17.575Z,2.05
2022-12-22T10:21:08.270Z,2.27
2022-12-22T10:23:38.794Z,2.63
2022-12-22T10:26:30.667Z,2.60
2022-12-22T10:29:06.923Z,2.80
2022-12-22T10:31:35.150Z,5.38
2022-12-22T10:34:16.020Z,2.67
2022-12-22T10:36:47.187Z,2.57
2022-12-22T10:39:19.543Z,3.23
2022-12-22T10:41:49.136Z,2.97
2022-12-22T10:44:15.838Z,3.30
2022-12-22T10:46:46.531Z,3.28
2022-12-22T10:49:13.268Z,4.07
2022-12-22T10:51:40.785Z,3.97
2022-12-22T10:54:07.624Z,4.80
2022-12-22T10:56:34.833Z,4.80
2022-12-22T10:59:01.553Z,4.63
2022-12-22T11:01:32.956Z,4.83
2022-12-22T11:04:16.461Z,4.90
2022-12-22T11:06:43.560Z,4.68
2022-12-22T11:09:32.683Z,4.25
2022-12-22T11:12:03.319Z,4.50
2022-12-22T11:14:54.541Z,4.70
2022-12-22T11:17:44.149Z,4.80
2022-12-22T11:20:41.491Z,7.50
2022-12-22T11:23:26.922Z,5.90
2022-12-22T11:26:11.363Z,7.83
2022-12-22T11:28:56.955Z,10.23
2022-12-22T11:31:39.722Z,9.87
2022-12-22T11:34:51.821Z,10.60
2022-12-22T11:37:27.565Z,11.20
2022-12-22T11:39:59.740Z,7.90
2022-12-22T11:42:35.104Z,7.80
2022-12-22T11:45:16.506Z,7.67
2022-12-22T11:47:51.091Z,6.43
2022-12-22T11:50:57.494Z,6.20
2022-12-22T11:53:24.979Z,6.10
2022-12-22T11:56:30.312Z,10.27
2022-12-22T11:59:21.337Z,8.87
2022-12-22T12:01:56.682Z,6.70
2022-12-22T12:04:51.836Z,6.03
2022-12-22T12:07:25.126Z,4.90
2022-12-22T12:10:01.230Z,4.30
2022-12-22T12:12:43.928Z,4.70
2022-12-22T12:15:32.182Z,4.50
2022-12-22T12:18:26.231Z,3.87
2022-12-22T12:21:09.154Z,3.45
2022-12-22T12:24:08.033Z,3.30
2022-12-22T12:27:25.500Z,3.50
2022-12-22T12:30:36.396Z,2.80
2022-12-22T12:33:20.435Z,4.47
2022-12-22T12:36:26.159Z,4.20
2022-12-22T12:39:07.822Z,4.27
2022-12-22T12:41:47.278Z,3.37
2022-12-22T12:44:15.728Z,3.60
2022-12-22T12:46:42.519Z,3.40
2022-12-22T12:49:33.728Z,3.50
2022-12-22T12:52:10.273Z,4.33
2022-12-22T12:54:49.632Z,3.30
2022-12-22T12:57:29.897Z,4.27
2022-12-22T13:00:00.686Z,5.10
2022-12-22T13:02:27.877Z,4.93
2022-12-22T13:05:12.300Z,3.80
2022-12-22T13:08:07.646Z,6.07
2022-12-22T13:10:45.986Z,5.07
2022-12-22T13:13:21.806Z,4.87
2022-12-22T13:16:07.264Z,3.40
2022-12-22T13:18:34.175Z,4.43
2022-12-22T13:24:22.882Z,5.07
2022-12-22T13:26:42.585Z,5.17
2022-12-22T13:29:34.582Z,3.67
2022-12-22T13:32:24.744Z,3.20
2022-12-22T13:35:29.176Z,3.20
2022-12-22T13:37:48.580Z,4.70
2022-12-22T13:40:23.576Z,4.10
2022-12-22T13:42:57.001Z,4.33
2022-12-22T13:45:26.466Z,4.77
2022-12-22T13:47:53.137Z,3.87
2022-12-22T13:50:41.218Z,4.20
2022-12-22T13:53:09.572Z,4.60
2022-12-22T13:55:36.865Z,3.90
2022-12-22T13:58:19.053Z,7.20
2022-12-22T14:00:45.789Z,3.70
2022-12-22T14:03:50.325Z,3.30
2022-12-22T14:06:38.742Z,3.20
2022-12-22T14:09:20.515Z,2.90
2022-12-22T14:11:52.439Z,4.27
2022-12-22T14:14:25.688Z,3.23
2022-12-22T14:16:53.467Z,2.93
2022-12-22T14:19:20.535Z,3.17
2022-12-22T14:21:51.008Z,3.13
2022-12-22T14:24:21.762Z,3.23
2022-12-22T14:26:48.537Z,3.87
2022-12-22T14:29:17.497Z,3.50
2022-12-22T14:31:55.382Z,3.63
2022-12-22T14:34:40.345Z,3.43
2022-12-22T14:37:09.244Z,3.90
2022-12-22T14:39:35.979Z,3.73
2022-12-22T14:42:06.012Z,3.60
2022-12-22T14:44:34.615Z,3.60
2022-12-22T14:47:17.282Z,3.60
2022-12-22T14:49:51.263Z,3.60
2022-12-22T14:52:49.331Z,3.30
2022-12-22T14:55:30.136Z,3.20
2022-12-22T14:58:01.530Z,3.37
2022-12-22T15:00:29.846Z,3.80
2022-12-22T15:02:58.719Z,3.37
2022-12-22T15:05:26.702Z,2.80
2022-12-22T15:08:10.767Z,5.17
2022-12-22T15:10:42.178Z,3.70
2022-12-22T15:13:27.432Z,3.93
2022-12-22T15:15:54.220Z,7.37
2022-12-22T15:18:25.478Z,5.33
2022-12-22T15:20:52.626Z,4.80
2022-12-22T15:23:19.509Z,4.60
2022-12-22T15:25:46.356Z,5.20
2022-12-22T15:28:13.274Z,4.97
2022-12-22T15:30:41.319Z,6.00
2022-12-22T15:33:13.281Z,6.07
2022-12-22T15:35:40.069Z,6.80
2022-12-22T15:38:10.053Z,8.33
2022-12-22T15:40:37.466Z,6.00
2022-12-22T15:43:04.205Z,5.30
2022-12-22T15:45:30.935Z,5.70
2022-12-22T15:47:57.765Z,5.60
2022-12-22T15:50:29.288Z,5.93
2022-12-22T15:52:57.930Z,5.13
2022-12-22T15:55:25.207Z,5.30
2022-12-22T15:57:57.368Z,5.90
2022-12-22T16:00:24.197Z,5.30
2022-12-22T16:02:51.185Z,6.57
2022-12-22T16:05:18.523Z,6.20
2022-12-22T16:07:45.344Z,5.07
2022-12-22T16:10:24.714Z,6.83
2022-12-22T16:13:00.099Z,5.40
2022-12-22T16:15:28.208Z,6.87
2022-12-22T16:17:55.136Z,10.20
2022-12-22T16:20:21.951Z,7.40
2022-12-22T16:22:49.119Z,7.90
2022-12-22T16:25:17.088Z,9.60
2022-12-22T16:27:43.962Z,9.47
2022-12-22T16:30:20.722Z,7.70
2022-12-22T16:32:47.519Z,9.50
2022-12-22T16:35:19.644Z,7.73
2022-12-22T16:37:46.606Z,7.03
2022-12-22T16:40:13.500Z,8.60
2022-12-22T16:45:27.378Z,6.10
2022-12-22T16:47:54.157Z,5.70
2022-12-22T16:50:25.366Z,6.80
2022-12-22T16:52:52.154Z,7.27
2022-12-22T16:55:20.296Z,5.20
2022-12-22T16:57:47.177Z,5.90
2022-12-22T17:00:17.812Z,6.37
2022-12-22T17:02:45.941Z,5.23
2022-12-22T17:05:42.067Z,5.30
2022-12-22T17:08:20.797Z,4.23
2022-12-22T17:10:47.723Z,4.73
2022-12-22T17:13:14.492Z,4.50
2022-12-22T17:15:41.318Z,6.27
2022-12-22T17:18:26.453Z,11.93
2022-12-22T17:20:55.428Z,7.30
2022-12-22T17:23:32.209Z,8.83
2022-12-22T17:25:59.645Z,9.30
2022-12-22T17:28:26.804Z,8.03
2022-12-22T17:30:53.745Z,8.17
2022-12-22T17:33:20.515Z,8.70
2022-12-22T17:35:47.285Z,9.93
2022-12-22T17:38:14.761Z,7.57
2022-12-22T17:40:41.674Z,9.30
2022-12-22T17:43:13.189Z,8.60
2022-12-22T17:45:40.062Z,8.50
2022-12-22T17:48:07.064Z,9.00
2022-12-22T17:50:33.957Z,8.50
2022-12-22T17:53:01.407Z,7.40
2022-12-22T17:56:05.896Z,8.50
2022-12-22T17:58:16.469Z,7.60
2022-12-22T18:00:43.446Z,6.93
2022-12-22T18:03:13.986Z,6.20
2022-12-22T18:05:43.192Z,6.10
2022-12-22T18:08:14.215Z,6.53
2022-12-22T18:10:40.955Z,5.47
2022-12-22T18:13:22.481Z,6.50
2022-12-22T18:15:49.264Z,6.73
2022-12-22T18:18:17.088Z,8.50
2022-12-22T18:20:44.223Z,6.35
2022-12-22T18:23:18.588Z,6.20
2022-12-22T18:25:45.414Z,7.40
2022-12-22T18:28:15.811Z,6.20
2022-12-22T18:30:42.759Z,5.97
2022-12-22T18:33:09.552Z,5.93
2022-12-22T18:35:36.332Z,6.60
2022-12-22T18:38:03.146Z,6.47
2022-12-22T18:40:37.873Z,6.72
2022-12-22T18:43:10.148Z,8.98
2022-12-22T18:45:36.946Z,8.07
2022-12-22T18:48:04.177Z,7.43
2022-12-22T18:50:31.697Z,5.10
2022-12-22T18:52:59.635Z,6.38
2022-12-22T18:55:28.334Z,7.60
2022-12-22T18:57:56.077Z,6.25
2022-12-22T19:00:25.527Z,5.03
2022-12-22T19:02:53.729Z,4.50
2022-12-22T19:05:31.139Z,3.83
2022-12-22T19:07:58.200Z,4.85
2022-12-22T19:10:37.269Z,4.43
2022-12-22T19:13:04.431Z,4.18
2022-12-22T19:15:38.558Z,6.15
2022-12-22T19:18:05.826Z,6.80
2022-12-22T19:20:32.671Z,10.02
2022-12-22T19:23:00.610Z,11.02
2022-12-22T19:25:28.561Z,11.70
2022-12-22T19:27:56.117Z,13.77
2022-12-22T19:30:24.431Z,14.05
2022-12-22T19:32:53.686Z,14.60
2022-12-22T19:35:21.792Z,9.95
2022-12-22T19:37:49.736Z,7.43
2022-12-22T19:40:17.343Z,8.40
2022-12-22T19:42:46.216Z,9.15
2022-12-22T19:45:21.929Z,6.97
2022-12-22T19:47:49.354Z,4.97
2022-12-22T19:50:24.655Z,5.07
2022-12-22T19:52:52.266Z,6.43
2022-12-22T19:55:19.289Z,4.25
2022-12-22T19:57:46.686Z,4.28
2022-12-22T20:00:20.800Z,4.40
2022-12-22T20:02:48.651Z,4.35
2022-12-22T20:05:24.727Z,5.45
2022-12-22T20:07:52.568Z,5.10
2022-12-22T20:10:19.625Z,6.13
2022-12-22T20:12:47.603Z,7.18
2022-12-22T20:15:15.501Z,6.03
2022-12-22T20:17:42.433Z,6.57
2022-12-22T20:20:16.152Z,7.18
2022-12-22T20:22:44.203Z,6.45
2022-12-22T20:25:18.363Z,5.95
2022-12-22T20:27:45.206Z,7.88
2022-12-22T20:30:26.162Z,6.65
2022-12-22T20:32:54.494Z,6.40
2022-12-22T20:35:22.120Z,6.72
2022-12-22T20:37:49.086Z,8.05
2022-12-22T20:40:27.585Z,7.10
2022-12-22T20:42:54.465Z,7.55
2022-12-22T20:45:21.710Z,8.18
2022-12-22T20:47:49.522Z,8.82
2022-12-22T20:50:21.904Z,10.00
2022-12-22T20:52:48.841Z,10.40
2022-12-22T20:55:23.361Z,9.40
2022-12-22T20:57:50.431Z,10.35
2022-12-22T21:00:21.105Z,12.50
2022-12-22T21:02:51.036Z,12.43
2022-12-22T21:05:18.183Z,9.00
2022-12-22T21:07:45.919Z,9.68
2022-12-22T21:10:20.760Z,9.63
2022-12-22T21:12:47.531Z,8.73
2022-12-22T21:15:32.485Z,8.80
2022-12-22T21:17:59.270Z,7.15
2022-12-22T21:20:27.549Z,8.35
2022-12-22T21:22:54.397Z,7.28
2022-12-22T21:25:21.109Z,6.25
2022-12-22T21:27:48.786Z,6.38
2022-12-22T21:30:16.132Z,7.78
2022-12-22T21:32:43.034Z,8.88
2022-12-22T21:35:14.528Z,8.50
2022-12-22T21:37:41.842Z,6.88
2022-12-22T21:40:22.388Z,7.13
2022-12-22T21:42:49.508Z,5.75
2022-12-22T21:45:17.851Z,5.95
2022-12-22T21:47:44.683Z,5.90
2022-12-22T21:50:21.817Z,5.60
2022-12-22T21:52:51.720Z,5.65
2022-12-22T21:55:30.194Z,7.70
2022-12-22T21:57:57.348Z,6.65
2022-12-22T22:00:24.541Z,6.03
2022-12-22T22:02:51.586Z,7.53
2022-12-22T22:05:25.774Z,9.00
2022-12-22T22:07:52.572Z,6.90
2022-12-22T22:10:27.374Z,7.68
2022-12-22T22:12:54.192Z,5.85
2022-12-22T22:15:21.290Z,6.28
2022-12-22T22:17:48.152Z,6.43
2022-12-22T22:20:23.090Z,5.78
2022-12-22T22:22:50.427Z,5.47
2022-12-22T22:25:17.870Z,5.60
2022-12-22T22:27:47.978Z,5.10
2022-12-22T22:30:22.533Z,6.13
2022-12-22T22:32:49.440Z,5.93
2022-12-22T22:35:16.605Z,7.20
2022-12-22T22:37:45.678Z,5.90
2022-12-22T22:40:14.065Z,6.13
2022-12-22T22:42:40.996Z,6.65
2022-12-22T22:45:08.409Z,7.65
2022-12-22T22:47:35.332Z,5.63
2022-12-22T22:50:06.898Z,7.70
2022-12-22T22:52:33.975Z,6.40
2022-12-22T22:55:00.751Z,6.32
2022-12-22T22:57:27.486Z,6.60
2022-12-22T22:59:54.372Z,5.53
2022-12-22T23:02:21.304Z,7.13
2022-12-22T23:04:48.175Z,5.90
2022-12-22T23:07:14.962Z,5.30
2022-12-22T23:09:41.670Z,7.43
2022-12-22T23:12:08.401Z,7.35
2022-12-22T23:14:38.142Z,7.43
2022-12-22T23:17:05.224Z,5.82
2022-12-22T23:19:32.061Z,6.40
2022-12-22T23:21:58.914Z,6.10
2022-12-22T23:24:25.657Z,5.35
2022-12-22T23:26:52.380Z,5.63
2022-12-22T23:29:19.371Z,4.85
2022-12-22T23:31:46.268Z,6.03
2022-12-22T23:34:13.093Z,5.72
2022-12-22T23:36:39.883Z,5.32
2022-12-22T23:39:06.718Z,4.45
2022-12-22T23:41:33.444Z,5.88
2022-12-22T23:44:00.200Z,5.20
2022-12-22T23:46:27.225Z,5.63
2022-12-22T23:48:55.794Z,6.32
2022-12-22T23:51:23.355Z,5.82
2022-12-22T23:53:50.182Z,7.45
2022-12-22T23:56:16.957Z,8.55
2022-12-22T23:58:43.663Z,8.20
